sensor_id;sensor_type;location;lat;lon;timestamp;pressure;altitude;pressure_sealevel;temperature
45034;BMP280;30771;47.988;-4.186;2023-07-13T06:01:13;99170.16;;;17.54
45034;BMP280;30771;47.988;-4.186;2023-07-13T06:03:39;99181.59;;;17.55
45034;BMP280;30771;47.988;-4.186;2023-07-13T06:06:06;99183.63;;;17.63
45034;BMP280;30771;47.988;-4.186;2023-07-13T06:08:32;99192.16;;;17.65
45034;BMP280;30771;47.988;-4.186;2023-07-13T06:11:13;99193.47;;;17.67
45034;BMP280;30771;47.988;-4.186;2023-07-13T06:13:39;99193.97;;;17.69
45034;BMP280;30771;47.988;-4.186;2023-07-13T06:16:05;99192.88;;;17.70
45034;BMP280;30771;47.988;-4.186;2023-07-13T06:18:34;99196.59;;;17.74
45034;BMP280;30771;47.988;-4.186;2023-07-13T06:21:00;99201.91;;;17.74
45034;BMP280;30771;47.988;-4.186;2023-07-13T06:23:25;99200.78;;;17.80
45034;BMP280;30771;47.988;-4.186;2023-07-13T06:25:51;99194.09;;;17.83
45034;BMP280;30771;47.988;-4.186;2023-07-13T06:28:16;99193.56;;;17.86
45034;BMP280;30771;47.988;-4.186;2023-07-13T06:30:42;99188.97;;;17.91
45034;BMP280;30771;47.988;-4.186;2023-07-13T06:33:07;99192.63;;;17.95
45034;BMP280;30771;47.988;-4.186;2023-07-13T06:35:33;99195.00;;;18.02
45034;BMP280;30771;47.988;-4.186;2023-07-13T06:37:59;99194.41;;;18.05
45034;BMP280;30771;47.988;-4.186;2023-07-13T06:40:24;99190.13;;;18.09
45034;BMP280;30771;47.988;-4.186;2023-07-13T06:42:50;99180.53;;;18.08
45034;BMP280;30771;47.988;-4.186;2023-07-13T06:45:15;99179.91;;;18.16
45034;BMP280;30771;47.988;-4.186;2023-07-13T06:47:41;99179.63;;;18.17
45034;BMP280;30771;47.988;-4.186;2023-07-13T06:50:07;99170.53;;;18.23
45034;BMP280;30771;47.988;-4.186;2023-07-13T06:52:32;99171.00;;;18.25
45034;BMP280;30771;47.988;-4.186;2023-07-13T06:54:57;99156.06;;;18.24
45034;BMP280;30771;47.988;-4.186;2023-07-13T06:57:23;99162.91;;;18.36
45034;BMP280;30771;47.988;-4.186;2023-07-13T06:59:48;99141.50;;;18.41
45034;BMP280;30771;47.988;-4.186;2023-07-13T07:02:14;99112.69;;;18.43
45034;BMP280;30771;47.988;-4.186;2023-07-13T07:04:39;99117.53;;;18.59
45034;BMP280;30771;47.988;-4.186;2023-07-13T07:07:04;99088.13;;;18.64
45034;BMP280;30771;47.988;-4.186;2023-07-13T07:09:30;99076.22;;;18.75
45034;BMP280;30771;47.988;-4.186;2023-07-13T07:11:56;99056.69;;;18.80
45034;BMP280;30771;47.988;-4.186;2023-07-13T07:14:22;99050.75;;;18.83
45034;BMP280;30771;47.988;-4.186;2023-07-13T07:16:47;99029.84;;;18.90
45034;BMP280;30771;47.988;-4.186;2023-07-13T07:19:13;99011.88;;;18.95
45034;BMP280;30771;47.988;-4.186;2023-07-13T07:21:38;99003.41;;;19.07
45034;BMP280;30771;47.988;-4.186;2023-07-13T07:24:04;98977.31;;;19.17
45034;BMP280;30771;47.988;-4.186;2023-07-13T07:26:30;98975.22;;;19.28
45034;BMP280;30771;47.988;-4.186;2023-07-13T07:28:56;98946.38;;;19.30
45034;BMP280;30771;47.988;-4.186;2023-07-13T07:31:21;98927.91;;;19.33
45034;BMP280;30771;47.988;-4.186;2023-07-13T07:33:47;98922.84;;;19.45
45034;BMP280;30771;47.988;-4.186;2023-07-13T07:36:12;98898.41;;;19.52
45034;BMP280;30771;47.988;-4.186;2023-07-13T07:38:38;98889.06;;;19.63
45034;BMP280;30771;47.988;-4.186;2023-07-13T07:41:04;98850.59;;;19.64
45034;BMP280;30771;47.988;-4.186;2023-07-13T07:43:30;98829.81;;;19.74
45034;BMP280;30771;47.988;-4.186;2023-07-13T07:45:56;98802.63;;;19.81
45034;BMP280;30771;47.988;-4.186;2023-07-13T07:48:22;98763.56;;;19.85
45034;BMP280;30771;47.988;-4.186;2023-07-13T07:50:48;98712.63;;;19.81
45034;BMP280;30771;47.988;-4.186;2023-07-13T07:53:14;98655.94;;;19.84
45034;BMP280;30771;47.988;-4.186;2023-07-13T07:55:39;98603.31;;;19.85
45034;BMP280;30771;47.988;-4.186;2023-07-13T07:58:05;98574.25;;;19.92
45034;BMP280;30771;47.988;-4.186;2023-07-13T08:00:31;98512.19;;;19.86
45034;BMP280;30771;47.988;-4.186;2023-07-13T08:02:58;98489.88;;;19.91
45034;BMP280;30771;47.988;-4.186;2023-07-13T08:05:24;98464.13;;;19.95
45034;BMP280;30771;47.988;-4.186;2023-07-13T08:07:50;98440.25;;;19.90
45034;BMP280;30771;47.988;-4.186;2023-07-13T08:10:15;98424.22;;;19.90
45034;BMP280;30771;47.988;-4.186;2023-07-13T08:12:41;98409.59;;;19.96
45034;BMP280;30771;47.988;-4.186;2023-07-13T08:15:09;98409.88;;;20.03
45034;BMP280;30771;47.988;-4.186;2023-07-13T08:17:38;98394.00;;;19.98
45034;BMP280;30771;47.988;-4.186;2023-07-13T08:20:04;98401.25;;;19.98
45034;BMP280;30771;47.988;-4.186;2023-07-13T08:22:30;98382.25;;;19.99
45034;BMP280;30771;47.988;-4.186;2023-07-13T08:24:55;98366.53;;;19.98
45034;BMP280;30771;47.988;-4.186;2023-07-13T08:27:26;98362.44;;;20.09
45034;BMP280;30771;47.988;-4.186;2023-07-13T08:29:53;98362.59;;;20.12
45034;BMP280;30771;47.988;-4.186;2023-07-13T08:32:20;98360.84;;;20.08
45034;BMP280;30771;47.988;-4.186;2023-07-13T08:34:46;98356.63;;;20.07
45034;BMP280;30771;47.988;-4.186;2023-07-13T08:37:12;98349.53;;;20.19
45034;BMP280;30771;47.988;-4.186;2023-07-13T08:39:38;98341.63;;;20.23
45034;BMP280;30771;47.988;-4.186;2023-07-13T08:42:13;98343.50;;;20.31
45034;BMP280;30771;47.988;-4.186;2023-07-13T08:44:57;98342.91;;;20.34
45034;BMP280;30771;47.988;-4.186;2023-07-13T08:47:29;98335.84;;;20.29
45034;BMP280;30771;47.988;-4.186;2023-07-13T08:49:55;98336.91;;;20.28
45034;BMP280;30771;47.988;-4.186;2023-07-13T08:52:32;98339.75;;;20.32
45034;BMP280;30771;47.988;-4.186;2023-07-13T08:55:12;98321.50;;;20.34
45034;BMP280;30771;47.988;-4.186;2023-07-13T08:57:39;98323.50;;;20.45
45034;BMP280;30771;47.988;-4.186;2023-07-13T09:00:10;98323.13;;;20.55
45034;BMP280;30771;47.988;-4.186;2023-07-13T09:02:55;98304.69;;;20.71
45034;BMP280;30771;47.988;-4.186;2023-07-13T09:05:28;98288.50;;;20.88
45034;BMP280;30771;47.988;-4.186;2023-07-13T09:08:20;98295.72;;;21.08
45034;BMP280;30771;47.988;-4.186;2023-07-13T09:10:53;98298.41;;;21.08
45034;BMP280;30771;47.988;-4.186;2023-07-13T09:16:17;98311.00;;;21.28
45034;BMP280;30771;47.988;-4.186;2023-07-13T09:18:48;98369.59;;;21.29
45034;BMP280;30771;47.988;-4.186;2023-07-13T09:21:17;98379.38;;;21.25
45034;BMP280;30771;47.988;-4.186;2023-07-13T09:23:44;98401.13;;;21.24
45034;BMP280;30771;47.988;-4.186;2023-07-13T09:26:22;98422.69;;;21.27
45034;BMP280;30771;47.988;-4.186;2023-07-13T09:28:51;98432.75;;;21.30
45034;BMP280;30771;47.988;-4.186;2023-07-13T09:31:23;98426.00;;;21.45
45034;BMP280;30771;47.988;-4.186;2023-07-13T09:33:49;98417.81;;;21.50
45034;BMP280;30771;47.988;-4.186;2023-07-13T09:36:25;98422.09;;;21.63
45034;BMP280;30771;47.988;-4.186;2023-07-13T09:39:14;98418.25;;;21.73
45034;BMP280;30771;47.988;-4.186;2023-07-13T09:42:01;98440.06;;;21.83
45034;BMP280;30771;47.988;-4.186;2023-07-13T09:44:42;98462.09;;;21.89
45034;BMP280;30771;47.988;-4.186;2023-07-13T09:47:17;98485.25;;;21.93
45034;BMP280;30771;47.988;-4.186;2023-07-13T09:49:42;98525.31;;;21.90
45034;BMP280;30771;47.988;-4.186;2023-07-13T09:52:15;98520.09;;;21.93
45034;BMP280;30771;47.988;-4.186;2023-07-13T09:54:45;98530.81;;;21.93
45034;BMP280;30771;47.988;-4.186;2023-07-13T09:57:17;98533.59;;;21.97
45034;BMP280;30771;47.988;-4.186;2023-07-13T09:59:48;98545.63;;;21.91
45034;BMP280;30771;47.988;-4.186;2023-07-13T10:02:33;98562.09;;;22.01
45034;BMP280;30771;47.988;-4.186;2023-07-13T10:07:26;98603.69;;;22.07
45034;BMP280;30771;47.988;-4.186;2023-07-13T10:09:53;98632.56;;;22.02
45034;BMP280;30771;47.988;-4.186;2023-07-13T10:12:19;98634.06;;;21.91
45034;BMP280;30771;47.988;-4.186;2023-07-13T10:14:45;98659.91;;;21.87
45034;BMP280;30771;47.988;-4.186;2023-07-13T10:17:14;98643.75;;;21.75
45034;BMP280;30771;47.988;-4.186;2023-07-13T10:19:42;98671.94;;;21.72
45034;BMP280;30771;47.988;-4.186;2023-07-13T10:22:27;98661.25;;;21.72
45034;BMP280;30771;47.988;-4.186;2023-07-13T10:24:55;98657.16;;;21.75
45034;BMP280;30771;47.988;-4.186;2023-07-13T10:27:29;98677.16;;;21.77
45034;BMP280;30771;47.988;-4.186;2023-07-13T10:32:24;98686.41;;;21.88
45034;BMP280;30771;47.988;-4.186;2023-07-13T10:34:50;98676.53;;;22.01
45034;BMP280;30771;47.988;-4.186;2023-07-13T10:37:30;98667.13;;;22.24
45034;BMP280;30771;47.988;-4.186;2023-07-13T10:39:57;98688.72;;;22.27
45034;BMP280;30771;47.988;-4.186;2023-07-13T10:42:43;98687.53;;;22.37
45034;BMP280;30771;47.988;-4.186;2023-07-13T10:45:20;98709.19;;;22.52
45034;BMP280;30771;47.988;-4.186;2023-07-13T10:47:46;98733.88;;;22.66
45034;BMP280;30771;47.988;-4.186;2023-07-13T10:50:20;98785.41;;;22.80
45034;BMP280;30771;47.988;-4.186;2023-07-13T10:52:52;98859.84;;;22.92
45034;BMP280;30771;47.988;-4.186;2023-07-13T10:55:54;98926.31;;;22.95
45034;BMP280;30771;47.988;-4.186;2023-07-13T10:58:22;98977.63;;;22.93
45034;BMP280;30771;47.988;-4.186;2023-07-13T11:00:57;99069.38;;;22.87
45034;BMP280;30771;47.988;-4.186;2023-07-13T11:03:27;99086.78;;;22.81
45034;BMP280;30771;47.988;-4.186;2023-07-13T11:06:12;99087.53;;;22.90
45034;BMP280;30771;47.988;-4.186;2023-07-13T11:08:52;99122.28;;;22.95
45034;BMP280;30771;47.988;-4.186;2023-07-13T11:21:21;99223.38;;;22.91
45034;BMP280;30771;47.988;-4.186;2023-07-13T11:24:14;99221.13;;;23.01
45034;BMP280;30771;47.988;-4.186;2023-07-13T11:26:43;99196.47;;;23.16
45034;BMP280;30771;47.988;-4.186;2023-07-13T11:31:41;99251.81;;;23.55
45034;BMP280;30771;47.988;-4.186;2023-07-13T11:34:13;99301.41;;;23.74
45034;BMP280;30771;47.988;-4.186;2023-07-13T11:36:43;99342.47;;;23.92
45034;BMP280;30771;47.988;-4.186;2023-07-13T11:39:35;99357.59;;;24.14
45034;BMP280;30771;47.988;-4.186;2023-07-13T11:42:12;99393.16;;;24.28
45034;BMP280;30771;47.988;-4.186;2023-07-13T11:44:43;99455.50;;;24.30
45034;BMP280;30771;47.988;-4.186;2023-07-13T11:47:14;99475.28;;;24.34
45034;BMP280;30771;47.988;-4.186;2023-07-13T11:49:45;99528.28;;;24.33
45034;BMP280;30771;47.988;-4.186;2023-07-13T11:52:16;99571.97;;;24.39
45034;BMP280;30771;47.988;-4.186;2023-07-13T11:54:51;99623.75;;;24.44
45034;BMP280;30771;47.988;-4.186;2023-07-13T11:57:24;99693.09;;;24.47
45034;BMP280;30771;47.988;-4.186;2023-07-13T11:59:52;99735.50;;;24.50
45034;BMP280;30771;47.988;-4.186;2023-07-13T12:02:31;99758.47;;;24.65
45034;BMP280;30771;47.988;-4.186;2023-07-13T12:04:58;99792.09;;;24.76
45034;BMP280;30771;47.988;-4.186;2023-07-13T12:07:28;99836.00;;;24.76
45034;BMP280;30771;47.988;-4.186;2023-07-13T12:10:00;99884.59;;;24.71
45034;BMP280;30771;47.988;-4.186;2023-07-13T12:12:29;99921.97;;;24.64
45034;BMP280;30771;47.988;-4.186;2023-07-13T12:14:55;99953.16;;;24.65
45034;BMP280;30771;47.988;-4.186;2023-07-13T12:17:23;99997.16;;;24.61
45034;BMP280;30771;47.988;-4.186;2023-07-13T12:19:50;100020.66;;;24.69
45034;BMP280;30771;47.988;-4.186;2023-07-13T12:22:18;100042.84;;;24.74
45034;BMP280;30771;47.988;-4.186;2023-07-13T12:24:45;100077.69;;;24.71
45034;BMP280;30771;47.988;-4.186;2023-07-13T12:27:23;100099.91;;;24.76
45034;BMP280;30771;47.988;-4.186;2023-07-13T12:30:03;100124.88;;;24.68
45034;BMP280;30771;47.988;-4.186;2023-07-13T12:32:31;100106.41;;;24.75
45034;BMP280;30771;47.988;-4.186;2023-07-13T12:35:16;100135.06;;;24.80
45034;BMP280;30771;47.988;-4.186;2023-07-13T12:37:45;100149.03;;;24.82
45034;BMP280;30771;47.988;-4.186;2023-07-13T12:40:35;100182.34;;;24.86
45034;BMP280;30771;47.988;-4.186;2023-07-13T12:43:02;100193.25;;;24.81
45034;BMP280;30771;47.988;-4.186;2023-07-13T12:45:33;100220.59;;;24.74
45034;BMP280;30771;47.988;-4.186;2023-07-13T12:48:04;100218.06;;;24.69
45034;BMP280;30771;47.988;-4.186;2023-07-13T12:50:37;100207.06;;;24.88
45034;BMP280;30771;47.988;-4.186;2023-07-13T12:53:05;100208.03;;;24.92
45034;BMP280;30771;47.988;-4.186;2023-07-13T12:55:41;100224.97;;;25.06
45034;BMP280;30771;47.988;-4.186;2023-07-13T12:58:16;100240.34;;;25.14
45034;BMP280;30771;47.988;-4.186;2023-07-13T13:00:48;100258.84;;;25.29
45034;BMP280;30771;47.988;-4.186;2023-07-13T13:05:46;100249.50;;;25.35
45034;BMP280;30771;47.988;-4.186;2023-07-13T13:08:11;100260.66;;;25.42
45034;BMP280;30771;47.988;-4.186;2023-07-13T13:10:37;100267.09;;;25.32
45034;BMP280;30771;47.988;-4.186;2023-07-13T13:13:03;100262.44;;;25.24
45034;BMP280;30771;47.988;-4.186;2023-07-13T13:15:28;100245.44;;;25.15
45034;BMP280;30771;47.988;-4.186;2023-07-13T13:17:55;100226.50;;;24.98
45034;BMP280;30771;47.988;-4.186;2023-07-13T13:20:21;100214.78;;;24.81
45034;BMP280;30771;47.988;-4.186;2023-07-13T13:22:47;100180.28;;;24.61
45034;BMP280;30771;47.988;-4.186;2023-07-13T13:25:14;100148.56;;;24.58
45034;BMP280;30771;47.988;-4.186;2023-07-13T13:27:44;100109.44;;;24.30
45034;BMP280;30771;47.988;-4.186;2023-07-13T13:30:14;100051.75;;;24.22
45034;BMP280;30771;47.988;-4.186;2023-07-13T13:32:41;100017.31;;;24.33
45034;BMP280;30771;47.988;-4.186;2023-07-13T13:35:16;100059.56;;;24.32
45034;BMP280;30771;47.988;-4.186;2023-07-13T13:37:43;100088.06;;;24.11
45034;BMP280;30771;47.988;-4.186;2023-07-13T13:40:21;100101.75;;;24.01
45034;BMP280;30771;47.988;-4.186;2023-07-13T13:42:47;100070.75;;;24.04
45034;BMP280;30771;47.988;-4.186;2023-07-13T13:45:13;100062.03;;;24.20
45034;BMP280;30771;47.988;-4.186;2023-07-13T13:47:39;100079.63;;;24.26
45034;BMP280;30771;47.988;-4.186;2023-07-13T13:50:17;100074.13;;;24.31
45034;BMP280;30771;47.988;-4.186;2023-07-13T13:52:44;100089.41;;;24.22
45034;BMP280;30771;47.988;-4.186;2023-07-13T13:55:27;100083.22;;;24.13
45034;BMP280;30771;47.988;-4.186;2023-07-13T13:57:52;100084.22;;;24.26
45034;BMP280;30771;47.988;-4.186;2023-07-13T14:00:20;100163.34;;;24.25
45034;BMP280;30771;47.988;-4.186;2023-07-13T14:02:47;100162.47;;;24.16
45034;BMP280;30771;47.988;-4.186;2023-07-13T14:05:21;100147.75;;;24.35
45034;BMP280;30771;47.988;-4.186;2023-07-13T14:07:47;100182.50;;;24.59
45034;BMP280;30771;47.988;-4.186;2023-07-13T14:10:15;100220.59;;;24.74
45034;BMP280;30771;47.988;-4.186;2023-07-13T14:12:45;100271.53;;;25.06
45034;BMP280;30771;47.988;-4.186;2023-07-13T14:15:25;100310.50;;;25.53
45034;BMP280;30771;47.988;-4.186;2023-07-13T14:17:52;100369.88;;;25.61
45034;BMP280;30771;47.988;-4.186;2023-07-13T14:20:20;100417.84;;;25.64
45034;BMP280;30771;47.988;-4.186;2023-07-13T14:22:47;100447.63;;;25.59
45034;BMP280;30771;47.988;-4.186;2023-07-13T14:25:15;100490.25;;;25.57
45034;BMP280;30771;47.988;-4.186;2023-07-13T14:27:41;100464.66;;;25.68
45034;BMP280;30771;47.988;-4.186;2023-07-13T14:30:15;100436.97;;;25.76
45034;BMP280;30771;47.988;-4.186;2023-07-13T14:32:41;100438.25;;;25.79
45034;BMP280;30771;47.988;-4.186;2023-07-13T14:35:11;100506.56;;;25.74
45034;BMP280;30771;47.988;-4.186;2023-07-13T14:37:38;100517.56;;;25.56
45034;BMP280;30771;47.988;-4.186;2023-07-13T14:40:14;100529.16;;;25.56
45034;BMP280;30771;47.988;-4.186;2023-07-13T14:42:40;100562.69;;;25.64
45034;BMP280;30771;47.988;-4.186;2023-07-13T14:45:12;100636.63;;;25.76
45034;BMP280;30771;47.988;-4.186;2023-07-13T14:47:37;100653.09;;;25.75
45034;BMP280;30771;47.988;-4.186;2023-07-13T14:50:03;100648.16;;;25.77
45034;BMP280;30771;47.988;-4.186;2023-07-13T14:52:30;100637.47;;;25.85
45034;BMP280;30771;47.988;-4.186;2023-07-13T14:54:55;100638.75;;;25.88
45034;BMP280;30771;47.988;-4.186;2023-07-13T14:57:21;100628.16;;;25.91
45034;BMP280;30771;47.988;-4.186;2023-07-13T14:59:47;100638.97;;;25.91
45034;BMP280;30771;47.988;-4.186;2023-07-13T15:02:21;100636.28;;;25.78
45034;BMP280;30771;47.988;-4.186;2023-07-13T15:04:50;100648.56;;;25.84
45034;BMP280;30771;47.988;-4.186;2023-07-13T15:07:15;100634.22;;;25.97
45034;BMP280;30771;47.988;-4.186;2023-07-13T15:09:43;100640.56;;;26.14
45034;BMP280;30771;47.988;-4.186;2023-07-13T15:12:08;100652.50;;;26.22
45034;BMP280;30771;47.988;-4.186;2023-07-13T15:14:34;100663.41;;;26.30
45034;BMP280;30771;47.988;-4.186;2023-07-13T15:16:59;100662.31;;;26.31
45034;BMP280;30771;47.988;-4.186;2023-07-13T15:19:26;100657.81;;;26.05
45034;BMP280;30771;47.988;-4.186;2023-07-13T15:21:51;100642.69;;;26.04
45034;BMP280;30771;47.988;-4.186;2023-07-13T15:24:20;100628.72;;;26.24
45034;BMP280;30771;47.988;-4.186;2023-07-13T15:26:46;100635.59;;;26.30
45034;BMP280;30771;47.988;-4.186;2023-07-13T15:29:14;100632.44;;;26.28
45034;BMP280;30771;47.988;-4.186;2023-07-13T15:31:40;100633.31;;;26.23
45034;BMP280;30771;47.988;-4.186;2023-07-13T15:34:15;100636.59;;;26.12
45034;BMP280;30771;47.988;-4.186;2023-07-13T15:36:47;100628.16;;;26.13
45034;BMP280;30771;47.988;-4.186;2023-07-13T15:39:15;100606.81;;;26.25
45034;BMP280;30771;47.988;-4.186;2023-07-13T15:41:42;100616.22;;;26.28
45034;BMP280;30771;47.988;-4.186;2023-07-13T15:44:30;100633.72;;;26.30
45034;BMP280;30771;47.988;-4.186;2023-07-13T15:46:56;100638.06;;;26.40
45034;BMP280;30771;47.988;-4.186;2023-07-13T15:49:21;100640.50;;;26.50
45034;BMP280;30771;47.988;-4.186;2023-07-13T15:51:47;100631.69;;;26.44
45034;BMP280;30771;47.988;-4.186;2023-07-13T15:54:15;100628.34;;;26.39
45034;BMP280;30771;47.988;-4.186;2023-07-13T15:56:41;100607.81;;;26.38
45034;BMP280;30771;47.988;-4.186;2023-07-13T15:59:09;100648.31;;;26.38
45034;BMP280;30771;47.988;-4.186;2023-07-13T16:01:38;100669.06;;;26.42
45034;BMP280;30771;47.988;-4.186;2023-07-13T16:04:03;100659.41;;;26.50
45034;BMP280;30771;47.988;-4.186;2023-07-13T16:06:32;100664.03;;;26.58
45034;BMP280;30771;47.988;-4.186;2023-07-13T16:08:58;100652.94;;;26.59
45034;BMP280;30771;47.988;-4.186;2023-07-13T16:11:32;100660.34;;;26.76
45034;BMP280;30771;47.988;-4.186;2023-07-13T16:13:58;100661.69;;;26.65
45034;BMP280;30771;47.988;-4.186;2023-07-13T16:16:29;100660.81;;;26.47
45034;BMP280;30771;47.988;-4.186;2023-07-13T16:18:57;100682.91;;;26.05
45034;BMP280;30771;47.988;-4.186;2023-07-13T16:21:33;100661.91;;;25.67
45034;BMP280;30771;47.988;-4.186;2023-07-13T16:24:01;100646.94;;;25.47
45034;BMP280;30771;47.988;-4.186;2023-07-13T16:26:31;100615.94;;;25.58
45034;BMP280;30771;47.988;-4.186;2023-07-13T16:29:25;100585.47;;;25.71
45034;BMP280;30771;47.988;-4.186;2023-07-13T16:32:05;100575.34;;;25.99
45034;BMP280;30771;47.988;-4.186;2023-07-13T16:34:34;100572.13;;;25.97
45034;BMP280;30771;47.988;-4.186;2023-07-13T16:37:01;100542.06;;;25.81
45034;BMP280;30771;47.988;-4.186;2023-07-13T16:39:28;100522.00;;;25.74
45034;BMP280;30771;47.988;-4.186;2023-07-13T16:41:57;100484.25;;;25.60
45034;BMP280;30771;47.988;-4.186;2023-07-13T16:44:24;100465.75;;;25.45
45034;BMP280;30771;47.988;-4.186;2023-07-13T16:46:53;100436.09;;;25.23
45034;BMP280;30771;47.988;-4.186;2023-07-13T16:49:26;100402.94;;;24.87
45034;BMP280;30771;47.988;-4.186;2023-07-13T16:51:54;100379.06;;;24.59
45034;BMP280;30771;47.988;-4.186;2023-07-13T16:54:21;100335.78;;;24.28
45034;BMP280;30771;47.988;-4.186;2023-07-13T16:56:47;100327.06;;;24.23
45034;BMP280;30771;47.988;-4.186;2023-07-13T16:59:17;100306.13;;;24.20
45034;BMP280;30771;47.988;-4.186;2023-07-13T17:01:44;100289.59;;;24.13
45034;BMP280;30771;47.988;-4.186;2023-07-13T17:04:11;100303.91;;;24.22
45034;BMP280;30771;47.988;-4.186;2023-07-13T17:06:37;100289.38;;;24.09
45034;BMP280;30771;47.988;-4.186;2023-07-13T17:09:05;100282.53;;;24.03
45034;BMP280;30771;47.988;-4.186;2023-07-13T17:11:32;100270.66;;;23.91
45034;BMP280;30771;47.988;-4.186;2023-07-13T17:13:58;100237.97;;;23.83
45034;BMP280;30771;47.988;-4.186;2023-07-13T17:16:24;100214.47;;;23.75
45034;BMP280;30771;47.988;-4.186;2023-07-13T17:18:50;100197.22;;;23.76
45034;BMP280;30771;47.988;-4.186;2023-07-13T17:21:17;100177.41;;;23.72
45034;BMP280;30771;47.988;-4.186;2023-07-13T17:23:43;100164.88;;;23.68
45034;BMP280;30771;47.988;-4.186;2023-07-13T17:26:09;100139.38;;;23.65
45034;BMP280;30771;47.988;-4.186;2023-07-13T17:28:35;100128.63;;;23.65
45034;BMP280;30771;47.988;-4.186;2023-07-13T17:31:01;100129.56;;;23.61
45034;BMP280;30771;47.988;-4.186;2023-07-13T17:33:36;100130.84;;;23.50
45034;BMP280;30771;47.988;-4.186;2023-07-13T17:36:09;100108.34;;;23.46
45034;BMP280;30771;47.988;-4.186;2023-07-13T17:38:42;100084.34;;;23.36
45034;BMP280;30771;47.988;-4.186;2023-07-13T17:41:09;100073.03;;;23.39
45034;BMP280;30771;47.988;-4.186;2023-07-13T17:43:37;100032.97;;;23.37
45034;BMP280;30771;47.988;-4.186;2023-07-13T17:46:14;100016.47;;;23.44
45034;BMP280;30771;47.988;-4.186;2023-07-13T17:48:42;99993.69;;;23.41
45034;BMP280;30771;47.988;-4.186;2023-07-13T17:51:14;99972.88;;;23.33
45034;BMP280;30771;47.988;-4.186;2023-07-13T17:53:40;99940.69;;;23.20
45034;BMP280;30771;47.988;-4.186;2023-07-13T17:56:09;99929.25;;;23.01
45034;BMP280;30771;47.988;-4.186;2023-07-13T17:58:36;99915.66;;;22.84
45034;BMP280;30771;47.988;-4.186;2023-07-13T18:01:02;99907.31;;;22.72
45034;BMP280;30771;47.988;-4.186;2023-07-13T18:03:28;99911.56;;;22.59
45034;BMP280;30771;47.988;-4.186;2023-07-13T18:06:02;99889.31;;;22.45
45034;BMP280;30771;47.988;-4.186;2023-07-13T18:08:32;99886.44;;;22.42
45034;BMP280;30771;47.988;-4.186;2023-07-13T18:10:59;99869.16;;;22.34
45034;BMP280;30771;47.988;-4.186;2023-07-13T18:13:26;99833.97;;;22.22
45034;BMP280;30771;47.988;-4.186;2023-07-13T18:15:53;99794.59;;;22.18
45034;BMP280;30771;47.988;-4.186;2023-07-13T18:18:21;99739.81;;;22.10
45034;BMP280;30771;47.988;-4.186;2023-07-13T18:20:46;99677.06;;;21.98
45034;BMP280;30771;47.988;-4.186;2023-07-13T18:23:18;99611.22;;;21.92
45034;BMP280;30771;47.988;-4.186;2023-07-13T18:25:45;99561.19;;;21.87
45034;BMP280;30771;47.988;-4.186;2023-07-13T18:28:11;99525.06;;;21.85
45034;BMP280;30771;47.988;-4.186;2023-07-13T18:30:41;99504.69;;;21.84
45034;BMP280;30771;47.988;-4.186;2023-07-13T18:33:33;99488.75;;;21.79
45034;BMP280;30771;47.988;-4.186;2023-07-13T18:36:02;99493.63;;;21.77
45034;BMP280;30771;47.988;-4.186;2023-07-13T18:38:29;99484.91;;;21.71
45034;BMP280;30771;47.988;-4.186;2023-07-13T18:40:56;99478.78;;;21.71
45034;BMP280;30771;47.988;-4.186;2023-07-13T18:43:23;99463.59;;;21.66
45034;BMP280;30771;47.988;-4.186;2023-07-13T18:45:54;99457.09;;;21.67
45034;BMP280;30771;47.988;-4.186;2023-07-13T18:48:21;99444.84;;;21.66
45034;BMP280;30771;47.988;-4.186;2023-07-13T18:50:49;99419.13;;;21.65
45034;BMP280;30771;47.988;-4.186;2023-07-13T18:53:15;99393.59;;;21.67
45034;BMP280;30771;47.988;-4.186;2023-07-13T18:55:42;99367.78;;;21.71
45034;BMP280;30771;47.988;-4.186;2023-07-13T18:58:10;99347.13;;;21.72
45034;BMP280;30771;47.988;-4.186;2023-07-13T19:00:39;99324.13;;;21.71
45034;BMP280;30771;47.988;-4.186;2023-07-13T19:03:28;99283.16;;;21.71
45034;BMP280;30771;47.988;-4.186;2023-07-13T19:05:55;99276.03;;;21.66
45034;BMP280;30771;47.988;-4.186;2023-07-13T19:08:22;99253.94;;;21.60
45034;BMP280;30771;47.988;-4.186;2023-07-13T19:10:51;99218.44;;;21.55
45034;BMP280;30771;47.988;-4.186;2023-07-13T19:13:21;99156.00;;;21.46
45034;BMP280;30771;47.988;-4.186;2023-07-13T19:15:47;99110.00;;;21.44
45034;BMP280;30771;47.988;-4.186;2023-07-13T19:18:18;99055.28;;;21.36
45034;BMP280;30771;47.988;-4.186;2023-07-13T19:20:48;98995.41;;;21.32
45034;BMP280;30771;47.988;-4.186;2023-07-13T19:23:29;98911.81;;;21.27
45034;BMP280;30771;47.988;-4.186;2023-07-13T19:26:02;98846.91;;;21.21
45034;BMP280;30771;47.988;-4.186;2023-07-13T19:28:47;98759.81;;;21.15
45034;BMP280;30771;47.988;-4.186;2023-07-13T19:31:26;98683.47;;;21.09
45034;BMP280;30771;47.988;-4.186;2023-07-13T19:33:52;98611.06;;;21.06
45034;BMP280;30771;47.988;-4.186;2023-07-13T19:36:20;98536.75;;;21.03
45034;BMP280;30771;47.988;-4.186;2023-07-13T19:38:48;98456.53;;;20.94
45034;BMP280;30771;47.988;-4.186;2023-07-13T19:41:17;98413.56;;;20.99
45034;BMP280;30771;47.988;-4.186;2023-07-13T19:43:44;98361.03;;;20.95
45034;BMP280;30771;47.988;-4.186;2023-07-13T19:48:43;98250.28;;;20.87
45034;BMP280;30771;47.988;-4.186;2023-07-13T19:51:15;98211.44;;;20.81
45034;BMP280;30771;47.988;-4.186;2023-07-13T19:53:41;98190.72;;;20.78
45034;BMP280;30771;47.988;-4.186;2023-07-13T19:56:08;98172.00;;;20.78
45034;BMP280;30771;47.988;-4.186;2023-07-13T19:58:34;98147.34;;;20.73
45034;BMP280;30771;47.988;-4.186;2023-07-13T20:00:59;98125.34;;;20.67
45034;BMP280;30771;47.988;-4.186;2023-07-13T20:03:25;98105.72;;;20.63
45034;BMP280;30771;47.988;-4.186;2023-07-13T20:05:50;98092.22;;;20.60
45034;BMP280;30771;47.988;-4.186;2023-07-13T20:08:19;98073.84;;;20.58
45034;BMP280;30771;47.988;-4.186;2023-07-13T20:10:48;98057.53;;;20.51
45034;BMP280;30771;47.988;-4.186;2023-07-13T20:13:15;98049.75;;;20.46
45034;BMP280;30771;47.988;-4.186;2023-07-13T20:15:46;98033.53;;;20.43
45034;BMP280;30771;47.988;-4.186;2023-07-13T20:18:14;98027.78;;;20.41
45034;BMP280;30771;47.988;-4.186;2023-07-13T20:20:41;98029.22;;;20.38
45034;BMP280;30771;47.988;-4.186;2023-07-13T20:23:18;98023.69;;;20.35
45034;BMP280;30771;47.988;-4.186;2023-07-13T20:25:45;98027.53;;;20.34
45034;BMP280;30771;47.988;-4.186;2023-07-13T20:28:15;98038.03;;;20.30
45034;BMP280;30771;47.988;-4.186;2023-07-13T20:30:45;98048.31;;;20.28